BME weather

Broome International Airport
Broome, Western Australia, Australia

Public forecast

Using degrees Celsius for public forecast. Weather courtesy of forecast.io.

METAR (pilot weather report)

Retrieved 2019/04/19 21:30 UTC (23 minutes ago):

YBRM 192130Z AUTO 28005KT 9999 // NCD 28/26 Q1010 RF00.0/000.0

TAF (pilot weather forecast)

Retrieved 2019/04/19 18:36 UTC (3 hours ago):

TAF YBRM 191703Z 1918/2018 28006KT 9999 SCT012 FM192300 23006KT CAVOK FM200400 28010KT CAVOK